»·PEaware :: N2476M KSMX-KPRB

N2476M :: KSMX-KPRB

FLIGHT INFORMATION

Flight Status: Arrived
Operator: Privately registered:
United States
More flights under this callsign
Pilot: Greg W. (23145)
Aircraft: PIPER PA-28 CHEROKEE ARCHER
(P28A)
More flights by this aircraft type
Origin: KSMX Santa Maria Pub/Capt Hancock
United States
Destination: KPRB Paso Robles Mun
United States
More flights between these airports :: More routes between these airports
Route: MQO
File this flight plan on PilotEdge
Remarks:
Altitude:
(Current/Filed)
4,500ft
Speed:
(Current/Filed)
100kts
Departed: 27-Jan-19 10:02 AM
Arrived: 27-Jan-19 10:46 AM
Distance/Time
Traveled:
47nm/0:44
Distance/Time
To Go:
Arrived

Flight Plot

Page will automatically refresh every two minutes.

Flight plan parsing failed; only flown route is shown


Map Options




Map Legend


Flown Route
Filed Route
Departure Airport
Arrival Airport
Navaid (VOR, NDB)
Fix

Horizontal Profiles

Position Reports

Time Latitude Longitude Heading Altitude Ground
Speed
27-Jan-19 09:51 34.906201 -120.457902 316 264ft 0kts
27-Jan-19 09:52 34.906201 -120.457902 316 264ft 0kts
27-Jan-19 09:53 34.906201 -120.457902 316 264ft 0kts
27-Jan-19 09:54 34.906201 -120.457902 316 264ft 0kts
27-Jan-19 09:55 34.906422 -120.458163 306 264ft 5kts
27-Jan-19 09:56 34.906305 -120.458603 225 264ft 0kts
27-Jan-19 09:57 34.904122 -120.456879 136 264ft 22kts
27-Jan-19 09:58 34.899292 -120.451150 137 264ft 15kts
27-Jan-19 09:59 34.895274 -120.446355 135 264ft 27kts
27-Jan-19 10:00 34.893499 -120.445212 182 264ft 0kts
27-Jan-19 10:01 34.895783 -120.449402 317 278ft 71kts
27-Jan-19 10:02 34.908544 -120.469237 316 915ft 76kts
27-Jan-19 10:03 34.927145 -120.483531 337 1639ft 86kts
27-Jan-19 10:04 34.947437 -120.498303 329 2347ft 90kts
27-Jan-19 10:05 34.970549 -120.517546 327 2639ft 104kts
27-Jan-19 10:06 34.994136 -120.537618 327 3030ft 102kts
27-Jan-19 10:07 35.017669 -120.557674 328 3398ft 103kts
27-Jan-19 10:08 35.041169 -120.577718 328 3757ft 103kts
27-Jan-19 10:09 35.064777 -120.597867 328 4101ft 103kts
27-Jan-19 10:10 35.088423 -120.618065 328 4432ft 103kts
27-Jan-19 10:11 35.112181 -120.638359 328 4664ft 106kts
27-Jan-19 10:12 35.136387 -120.659039 327 4620ft 107kts
27-Jan-19 10:13 35.145079 -120.666477 327 4574ft 109kts
27-Jan-19 10:14 35.159239 -120.678606 327 4550ft 108kts
27-Jan-19 10:15 35.183979 -120.699803 327 4493ft 108kts
27-Jan-19 10:16 35.208778 -120.721067 327 4437ft 108kts
27-Jan-19 10:17 35.233518 -120.742296 327 4384ft 108kts
27-Jan-19 10:18 35.260388 -120.754554 10 4334ft 102kts
27-Jan-19 10:19 35.289088 -120.748497 346 4201ft 111kts
27-Jan-19 10:20 35.284018 -120.773942 172 4037ft 111kts
27-Jan-19 10:21 35.257743 -120.760762 100 3936ft 107kts
27-Jan-19 10:22 35.270905 -120.730423 53 3925ft 102kts
27-Jan-19 10:23 35.288354 -120.703251 51 3952ft 101kts
27-Jan-19 10:24 35.305897 -120.676355 51 3975ft 101kts
27-Jan-19 10:25 35.323523 -120.649348 51 3994ft 101kts
27-Jan-19 10:26 35.341111 -120.622380 51 4011ft 101kts
27-Jan-19 10:27 35.358683 -120.595417 51 4028ft 101kts
27-Jan-19 10:28 35.376266 -120.568406 51 4043ft 101kts
27-Jan-19 10:29 35.393868 -120.541354 50 4056ft 101kts
27-Jan-19 10:30 35.411394 -120.514385 51 4048ft 88kts
27-Jan-19 10:31 35.429159 -120.487056 50 3820ft 102kts
27-Jan-19 10:32 35.446889 -120.459747 50 3842ft 101kts
27-Jan-19 10:33 35.470353 -120.443894 340 3428ft 106kts
27-Jan-19 10:34 35.496484 -120.463181 324 2780ft 109kts
27-Jan-19 10:35 35.519303 -120.483408 323 2238ft 98kts
27-Jan-19 10:36 35.540804 -120.502685 323 1799ft 90kts
27-Jan-19 10:37 35.560085 -120.520000 323 1741ft 82kts
27-Jan-19 10:38 35.578338 -120.536271 322 2020ft 78kts
27-Jan-19 10:39 35.595979 -120.552681 323 2253ft 83kts
27-Jan-19 10:40 35.615505 -120.570261 323 2315ft 87kts
27-Jan-19 10:41 35.632909 -120.586200 321 1731ft 72kts
27-Jan-19 10:42 35.648512 -120.600683 322 1205ft 71kts
27-Jan-19 10:43 35.663676 -120.614699 323 962ft 64kts
27-Jan-19 10:44 35.675839 -120.625522 322 809ft 47kts
27-Jan-19 10:45 35.676780 -120.629947 207 807ft 20kts
27-Jan-19 10:46 35.672920 -120.637549 191 802ft 28kts
27-Jan-19 10:47 35.671546 -120.637757 159 804ft 0kts

Navigation Log

Ident Type
Flight plan parsing failed, navigation log unavailable